createdAt,value
2023-02-17T00:01:22.028Z,3.37
2023-02-17T00:03:52.957Z,2.73
2023-02-17T00:06:23.725Z,3.90
2023-02-17T00:08:50.824Z,3.77
2023-02-17T00:11:18.653Z,3.87
2023-02-17T00:13:45.977Z,3.40
2023-02-17T00:16:18.093Z,3.63
2023-02-17T00:18:45.121Z,5.83
2023-02-17T00:21:15.168Z,3.23
2023-02-17T00:23:42.370Z,4.20
2023-02-17T00:26:09.573Z,3.57
2023-02-17T00:28:36.765Z,5.77
2023-02-17T00:31:20.046Z,3.30
2023-02-17T00:33:47.894Z,3.63
2023-02-17T00:36:17.940Z,2.83
2023-02-17T00:38:46.665Z,3.57
2023-02-17T00:41:13.752Z,4.47
2023-02-17T00:43:40.716Z,5.13
2023-02-17T00:46:07.897Z,5.33
2023-02-17T00:48:35.129Z,2.77
2023-02-17T00:51:01.976Z,2.83
2023-02-17T00:53:28.928Z,4.07
2023-02-17T00:55:55.829Z,3.20
2023-02-17T00:58:22.959Z,5.60
2023-02-17T01:00:49.925Z,3.33
2023-02-17T01:03:17.914Z,4.33
2023-02-17T01:05:46.880Z,4.83
2023-02-17T01:08:14.105Z,3.60
2023-02-17T01:10:43.520Z,3.23
2023-02-17T01:13:11.681Z,2.60
2023-02-17T01:15:46.575Z,3.30
2023-02-17T01:18:14.911Z,2.03
2023-02-17T01:20:41.895Z,4.97
2023-02-17T01:23:10.844Z,3.43
2023-02-17T01:25:39.105Z,3.77
2023-02-17T01:28:06.666Z,4.37
2023-02-17T01:30:33.922Z,4.83
2023-02-17T01:33:00.958Z,3.87
2023-02-17T01:35:27.856Z,3.50
2023-02-17T01:37:54.680Z,4.60
2023-02-17T01:40:22.600Z,4.07
2023-02-17T01:42:49.458Z,3.87
2023-02-17T01:45:19.071Z,3.63
2023-02-17T01:47:54.315Z,2.13
2023-02-17T01:50:25.972Z,2.47
2023-02-17T01:52:55.194Z,3.83
2023-02-17T01:55:24.014Z,2.30
2023-02-17T01:57:54.023Z,2.67
2023-02-17T02:00:24.533Z,2.87
2023-02-17T02:02:52.304Z,3.63
2023-02-17T02:05:20.277Z,4.60
2023-02-17T02:07:48.524Z,2.40
2023-02-17T02:10:16.671Z,3.73
2023-02-17T02:12:45.157Z,2.87
2023-02-17T02:15:17.417Z,3.10
2023-02-17T02:18:31.189Z,3.47
2023-02-17T02:21:16.541Z,3.80
2023-02-17T02:24:09.065Z,2.93
2023-02-17T02:27:03.747Z,4.47
2023-02-17T02:30:02.915Z,2.10
2023-02-17T02:32:53.915Z,2.93
2023-02-17T02:35:47.895Z,3.13
2023-02-17T02:38:24.284Z,3.00
2023-02-17T02:40:57.569Z,2.80
2023-02-17T02:43:25.029Z,1.60
2023-02-17T02:45:52.012Z,3.77
2023-02-17T02:48:18.918Z,3.13
2023-02-17T02:50:57.618Z,4.67
2023-02-17T02:53:36.430Z,2.77
2023-02-17T02:56:10.032Z,3.07
2023-02-17T02:58:42.941Z,3.43
2023-02-17T03:01:14.317Z,4.03
2023-02-17T03:04:31.885Z,4.07
2023-02-17T03:07:24.353Z,2.73
2023-02-17T03:09:54.150Z,2.63
2023-02-17T03:12:22.364Z,3.97
2023-02-17T03:14:52.799Z,2.83
2023-02-17T03:17:19.592Z,1.43
2023-02-17T03:19:47.778Z,2.67
2023-02-17T03:22:24.290Z,1.87
2023-02-17T03:24:51.567Z,3.10
2023-02-17T03:27:18.498Z,2.47
2023-02-17T03:29:45.455Z,2.50
2023-02-17T03:32:12.326Z,2.90
2023-02-17T03:34:39.402Z,4.43
2023-02-17T03:37:06.331Z,2.30
2023-02-17T03:39:33.249Z,4.20
2023-02-17T03:42:00.157Z,3.67
2023-02-17T03:44:26.982Z,3.47
2023-02-17T03:46:53.897Z,3.57
2023-02-17T03:49:21.023Z,4.40
2023-02-17T03:51:47.855Z,3.20
2023-02-17T03:54:14.728Z,2.13
2023-02-17T03:56:41.711Z,2.13
2023-02-17T03:59:08.652Z,2.03
2023-02-17T04:01:35.571Z,4.03
2023-02-17T04:04:02.606Z,3.43
2023-02-17T04:06:29.494Z,3.10
2023-02-17T04:08:56.361Z,2.70
2023-02-17T04:11:23.234Z,3.20
2023-02-17T04:13:50.216Z,2.80
2023-02-17T04:16:17.283Z,3.33
2023-02-17T04:18:44.166Z,1.93
2023-02-17T04:21:11.006Z,3.10
2023-02-17T04:23:38.054Z,4.10
2023-02-17T04:26:06.628Z,4.27
2023-02-17T04:28:34.687Z,3.97
2023-02-17T04:31:01.669Z,3.33
2023-02-17T04:33:28.581Z,2.07
2023-02-17T04:35:59.586Z,4.03
2023-02-17T04:38:31.393Z,2.67
2023-02-17T04:40:59.601Z,2.00
2023-02-17T04:43:27.742Z,4.03
2023-02-17T04:45:54.912Z,4.30
2023-02-17T04:48:22.701Z,3.90
2023-02-17T04:50:49.617Z,3.17
2023-02-17T04:53:16.691Z,2.93
2023-02-17T04:55:43.733Z,2.27
2023-02-17T04:58:10.872Z,3.90
2023-02-17T05:00:38.089Z,3.60
2023-02-17T05:03:04.930Z,2.13
2023-02-17T05:05:31.822Z,2.33
2023-02-17T05:07:58.740Z,3.27
2023-02-17T05:10:25.629Z,2.27
2023-02-17T05:12:52.549Z,2.67
2023-02-17T05:15:19.784Z,3.00
2023-02-17T05:17:46.642Z,2.37
2023-02-17T05:20:13.479Z,2.77
2023-02-17T05:22:40.320Z,1.93
2023-02-17T05:25:07.954Z,3.43
2023-02-17T05:27:34.967Z,2.90
2023-02-17T05:30:02.408Z,2.43
2023-02-17T05:32:29.344Z,1.97
2023-02-17T05:34:56.232Z,3.27
2023-02-17T05:37:23.191Z,4.27
2023-02-17T05:39:50.015Z,2.10
2023-02-17T05:42:16.828Z,3.47
2023-02-17T05:44:43.661Z,3.13
2023-02-17T05:47:10.451Z,3.13
2023-02-17T05:49:37.248Z,2.57
2023-02-17T05:52:04.164Z,3.53
2023-02-17T05:54:31.046Z,1.90
2023-02-17T05:56:57.882Z,2.33
2023-02-17T05:59:24.943Z,3.33
2023-02-17T06:01:51.899Z,2.80
2023-02-17T06:04:19.037Z,3.80
2023-02-17T06:06:45.920Z,5.87
2023-02-17T06:09:12.792Z,3.37
2023-02-17T06:11:39.608Z,3.50
2023-02-17T06:14:06.469Z,4.20
2023-02-17T06:16:33.560Z,2.97
2023-02-17T06:19:02.286Z,3.40
2023-02-17T06:21:29.164Z,2.67
2023-02-17T06:23:56.045Z,3.23
2023-02-17T06:26:23.066Z,3.37
2023-02-17T06:28:50.082Z,3.17
2023-02-17T06:31:17.012Z,3.17
2023-02-17T06:33:43.850Z,3.33
2023-02-17T06:36:10.780Z,3.10
2023-02-17T06:38:37.642Z,4.07
2023-02-17T06:41:04.746Z,5.63
2023-02-17T06:43:33.002Z,2.53
2023-02-17T06:45:59.923Z,4.27
2023-02-17T06:48:26.904Z,4.83
2023-02-17T06:50:53.799Z,4.03
2023-02-17T06:53:20.605Z,2.97
2023-02-17T06:55:47.457Z,5.23
2023-02-17T06:58:14.252Z,4.30
2023-02-17T07:00:41.051Z,4.23
2023-02-17T07:03:08.385Z,4.07
2023-02-17T07:05:36.837Z,2.37
2023-02-17T07:08:04.877Z,3.53
2023-02-17T07:10:32.133Z,3.13
2023-02-17T07:12:59.190Z,4.77
2023-02-17T07:15:26.056Z,4.10
2023-02-17T07:17:52.832Z,4.90
2023-02-17T07:20:19.902Z,5.27
2023-02-17T07:22:46.874Z,3.90
2023-02-17T07:25:13.831Z,3.33
2023-02-17T07:27:41.711Z,3.70
2023-02-17T07:30:09.199Z,5.63
2023-02-17T07:32:36.063Z,3.07
2023-02-17T07:35:03.022Z,3.47
2023-02-17T07:37:29.925Z,4.90
2023-02-17T07:39:57.364Z,4.50
2023-02-17T07:42:24.564Z,3.63
2023-02-17T07:44:54.447Z,4.63
2023-02-17T07:47:21.289Z,4.93
2023-02-17T07:49:48.146Z,4.60
2023-02-17T07:52:18.588Z,3.97
2023-02-17T07:54:45.799Z,2.40
2023-02-17T07:57:12.815Z,5.03
2023-02-17T07:59:39.663Z,3.03
2023-02-17T08:02:06.564Z,4.60
2023-02-17T08:04:33.669Z,3.77
2023-02-17T08:07:00.571Z,3.33
2023-02-17T08:09:45.910Z,2.27
2023-02-17T08:12:35.948Z,4.57
2023-02-17T08:15:04.448Z,3.10
2023-02-17T08:17:31.311Z,4.33
2023-02-17T08:20:00.530Z,4.77
2023-02-17T08:22:28.957Z,3.67
2023-02-17T08:24:55.841Z,6.97
2023-02-17T08:27:22.728Z,8.47
2023-02-17T08:29:49.902Z,5.60
2023-02-17T08:32:17.775Z,6.23
2023-02-17T08:34:44.707Z,3.50
2023-02-17T08:37:11.938Z,4.97
2023-02-17T08:39:39.115Z,3.77
2023-02-17T08:42:06.475Z,4.57
2023-02-17T08:44:35.893Z,6.60
2023-02-17T08:47:05.040Z,4.43
2023-02-17T08:49:32.680Z,3.40
2023-02-17T08:52:00.527Z,4.90
2023-02-17T08:54:27.685Z,2.87
2023-02-17T08:56:54.610Z,4.07
2023-02-17T08:59:21.652Z,4.67
2023-02-17T09:01:48.543Z,4.97
2023-02-17T09:04:16.240Z,3.60
2023-02-17T09:06:46.417Z,6.03
2023-02-17T09:09:16.029Z,4.77
2023-02-17T09:11:44.068Z,3.90
2023-02-17T09:14:11.711Z,6.23
2023-02-17T09:16:41.106Z,4.40
2023-02-17T09:19:08.560Z,3.47
2023-02-17T09:21:35.732Z,3.00
2023-02-17T09:24:02.738Z,5.00
2023-02-17T09:26:29.793Z,4.57
2023-02-17T09:28:58.006Z,3.23
2023-02-17T09:31:27.301Z,2.10
2023-02-17T09:33:55.468Z,2.67
2023-02-17T09:36:26.301Z,2.17
2023-02-17T09:38:53.968Z,1.77
2023-02-17T09:41:29.745Z,2.13
2023-02-17T09:43:56.573Z,3.10
2023-02-17T09:46:37.350Z,1.20
2023-02-17T09:49:15.902Z,2.50
2023-02-17T09:51:49.182Z,2.77
2023-02-17T09:54:21.661Z,2.77
2023-02-17T09:56:52.974Z,2.23
2023-02-17T09:59:41.853Z,1.47
2023-02-17T10:02:34.669Z,0.87
2023-02-17T10:05:06.310Z,1.77
2023-02-17T10:07:39.854Z,2.87
2023-02-17T10:10:16.298Z,2.50
2023-02-17T10:12:52.743Z,2.20
2023-02-17T10:15:25.259Z,2.77
2023-02-17T10:18:10.524Z,2.17
2023-02-17T10:20:44.636Z,1.83
2023-02-17T10:23:25.913Z,1.63
2023-02-17T10:26:08.377Z,1.57
2023-02-17T10:28:48.879Z,1.90
2023-02-17T10:31:35.565Z,3.13
2023-02-17T10:34:05.072Z,2.63
2023-02-17T10:36:48.159Z,1.20
2023-02-17T10:39:54.883Z,1.97
2023-02-17T10:42:30.261Z,2.60
2023-02-17T10:45:31.841Z,2.10
2023-02-17T10:48:12.012Z,1.63
2023-02-17T10:50:42.418Z,1.60
2023-02-17T10:53:29.321Z,3.00
2023-02-17T10:56:14.678Z,2.00
2023-02-17T10:58:53.803Z,3.13
2023-02-17T11:01:23.288Z,3.70
2023-02-17T11:04:22.404Z,2.23
2023-02-17T11:06:52.741Z,3.43
2023-02-17T11:09:28.933Z,2.80
2023-02-17T11:12:13.786Z,5.00
2023-02-17T11:14:51.923Z,4.57
2023-02-17T11:17:30.173Z,3.07
2023-02-17T11:20:07.881Z,3.30
2023-02-17T11:22:41.690Z,3.77
2023-02-17T11:25:25.690Z,3.57
2023-02-17T11:27:58.399Z,3.27
2023-02-17T11:30:27.611Z,5.03
2023-02-17T11:32:57.630Z,2.33
2023-02-17T11:35:29.792Z,3.03
2023-02-17T11:38:33.739Z,4.43
2023-02-17T11:41:03.041Z,4.60
2023-02-17T11:43:33.023Z,3.60
2023-02-17T11:46:08.660Z,3.60
2023-02-17T11:49:21.859Z,5.00
2023-02-17T11:51:58.220Z,5.63
2023-02-17T11:54:47.632Z,3.70
2023-02-17T11:57:17.665Z,4.27
2023-02-17T12:00:14.686Z,4.03
2023-02-17T12:03:00.050Z,3.57
2023-02-17T12:05:54.620Z,4.10
2023-02-17T12:08:48.777Z,4.20
2023-02-17T12:11:35.516Z,5.43
2023-02-17T12:14:17.457Z,4.17
2023-02-17T12:17:12.086Z,5.47
2023-02-17T12:20:07.247Z,4.63
2023-02-17T12:22:58.909Z,3.33
2023-02-17T12:25:59.484Z,4.07
2023-02-17T12:28:54.872Z,5.27
2023-02-17T12:32:03.534Z,4.60
2023-02-17T12:34:32.235Z,5.37
2023-02-17T12:37:00.489Z,4.17
2023-02-17T12:39:53.159Z,6.67
2023-02-17T12:42:26.163Z,4.03
2023-02-17T12:45:17.589Z,4.53
2023-02-17T12:47:59.436Z,4.50
2023-02-17T12:50:35.631Z,5.00
2023-02-17T12:53:06.660Z,5.33
2023-02-17T12:55:56.154Z,5.03
2023-02-17T12:58:26.571Z,5.63
2023-02-17T13:01:16.982Z,5.03
2023-02-17T13:03:43.944Z,4.83
2023-02-17T13:06:32.596Z,6.97
2023-02-17T13:09:09.160Z,5.37
2023-02-17T13:11:36.684Z,5.17
2023-02-17T13:14:43.590Z,5.60
2023-02-17T13:17:25.450Z,4.33
2023-02-17T13:20:04.513Z,5.80
2023-02-17T13:22:31.442Z,6.07
2023-02-17T13:24:58.296Z,3.97
2023-02-17T13:27:27.863Z,4.00
2023-02-17T13:30:03.534Z,4.70
2023-02-17T13:32:34.429Z,4.37
2023-02-17T13:35:24.312Z,4.83
2023-02-17T13:37:51.724Z,5.40
2023-02-17T13:40:18.621Z,5.17
2023-02-17T13:42:50.172Z,7.30
2023-02-17T13:45:16.950Z,5.43
2023-02-17T13:47:45.948Z,5.57
2023-02-17T13:50:32.650Z,7.13
2023-02-17T13:53:00.279Z,7.93
2023-02-17T13:55:27.164Z,5.30
2023-02-17T13:57:56.531Z,4.70
2023-02-17T14:00:26.364Z,5.43
2023-02-17T14:03:25.559Z,5.33
2023-02-17T14:05:57.864Z,5.23
2023-02-17T14:08:43.835Z,6.70
2023-02-17T14:11:14.204Z,4.20
2023-02-17T14:13:45.502Z,4.30
2023-02-17T14:16:32.755Z,5.43
2023-02-17T14:19:12.807Z,5.60
2023-02-17T14:21:44.627Z,5.63
2023-02-17T14:24:27.212Z,4.23
2023-02-17T14:27:00.237Z,4.57
2023-02-17T14:29:37.578Z,5.50
2023-02-17T14:32:04.783Z,5.80
2023-02-17T14:34:35.526Z,5.40
2023-02-17T14:37:22.387Z,6.17
2023-02-17T14:39:50.082Z,4.23
2023-02-17T14:42:17.294Z,3.60
2023-02-17T14:44:44.618Z,6.10
2023-02-17T14:47:11.468Z,5.77
2023-02-17T14:49:38.296Z,5.87
2023-02-17T14:52:22.773Z,5.87
2023-02-17T14:54:50.182Z,4.60
2023-02-17T14:57:18.626Z,7.07
2023-02-17T14:59:45.805Z,6.30
2023-02-17T15:02:21.239Z,4.77
2023-02-17T15:04:48.145Z,5.40
2023-02-17T15:07:19.301Z,5.70
2023-02-17T15:09:48.322Z,4.80
2023-02-17T15:12:18.195Z,6.77
2023-02-17T15:14:47.168Z,5.70
2023-02-17T15:17:14.926Z,5.00
2023-02-17T15:19:44.042Z,5.47
2023-02-17T15:22:14.617Z,6.20
2023-02-17T15:24:41.888Z,4.90
2023-02-17T15:27:14.237Z,5.70
2023-02-17T15:29:41.598Z,4.37
2023-02-17T15:32:20.091Z,6.73
2023-02-17T15:34:47.203Z,5.33
2023-02-17T15:37:14.190Z,4.90
2023-02-17T15:39:41.017Z,7.00
2023-02-17T15:42:13.733Z,5.80
2023-02-17T15:44:47.600Z,5.17
2023-02-17T15:47:18.429Z,4.07
2023-02-17T15:49:45.663Z,5.13
2023-02-17T15:52:13.824Z,4.97
2023-02-17T15:54:43.918Z,5.33
2023-02-17T15:57:21.934Z,7.77
2023-02-17T15:59:49.154Z,6.60
2023-02-17T16:02:22.092Z,5.53
2023-02-17T16:04:49.488Z,6.10
2023-02-17T16:07:16.563Z,6.33
2023-02-17T16:09:43.448Z,4.60
2023-02-17T16:12:26.664Z,6.13
2023-02-17T16:14:54.803Z,4.13
2023-02-17T16:17:21.765Z,5.70
2023-02-17T16:19:48.674Z,4.50
2023-02-17T16:22:15.488Z,6.73
2023-02-17T16:24:42.354Z,7.63
2023-02-17T16:27:14.499Z,5.73
2023-02-17T16:29:42.327Z,4.70
2023-02-17T16:32:12.922Z,5.77
2023-02-17T16:34:39.980Z,5.10
2023-02-17T16:37:13.979Z,4.30
2023-02-17T16:39:40.897Z,4.23
2023-02-17T16:42:11.414Z,5.03
2023-02-17T16:44:38.347Z,4.67
2023-02-17T16:47:08.104Z,6.57
2023-02-17T16:49:39.057Z,5.90
2023-02-17T16:52:17.144Z,3.10
2023-02-17T16:54:43.993Z,5.07
2023-02-17T16:57:17.562Z,5.40
2023-02-17T16:59:45.184Z,4.40
2023-02-17T17:02:12.972Z,6.13
2023-02-17T17:04:39.970Z,5.73
2023-02-17T17:07:06.820Z,5.33
2023-02-17T17:09:33.718Z,4.93
2023-02-17T17:12:00.556Z,4.03
2023-02-17T17:14:27.408Z,5.37
2023-02-17T17:17:00.887Z,5.60
2023-02-17T17:19:27.751Z,4.03
2023-02-17T17:21:54.620Z,4.87
2023-02-17T17:24:21.965Z,5.10
2023-02-17T17:26:51.323Z,5.77
2023-02-17T17:29:19.464Z,6.87
2023-02-17T17:31:46.874Z,6.03
2023-02-17T17:34:13.779Z,5.53
2023-02-17T17:36:45.572Z,6.00
2023-02-17T17:39:18.392Z,6.83
2023-02-17T17:41:45.621Z,5.33
2023-02-17T17:44:12.466Z,5.10
2023-02-17T17:46:39.547Z,4.53
2023-02-17T17:49:10.139Z,6.37
2023-02-17T17:51:38.171Z,5.90
2023-02-17T17:54:06.629Z,5.73
2023-02-17T17:56:36.283Z,5.07
2023-02-17T17:59:04.573Z,7.13
2023-02-17T18:01:32.239Z,5.43
2023-02-17T18:04:00.281Z,6.03
2023-02-17T18:06:33.408Z,5.33
2023-02-17T18:09:04.686Z,4.93
2023-02-17T18:11:32.395Z,4.43
2023-02-17T18:14:02.586Z,5.40
2023-02-17T18:16:30.606Z,5.60
2023-02-17T18:18:59.322Z,6.20
2023-02-17T18:21:26.226Z,7.20
2023-02-17T18:23:53.103Z,5.47
2023-02-17T18:26:20.223Z,5.03
2023-02-17T18:28:47.323Z,4.57
2023-02-17T18:31:16.870Z,6.20
2023-02-17T18:33:44.083Z,5.80
2023-02-17T18:36:13.538Z,6.37
2023-02-17T18:38:40.526Z,6.43
2023-02-17T18:41:07.716Z,8.23
2023-02-17T18:43:34.948Z,7.93
2023-02-17T18:46:01.814Z,5.07
2023-02-17T18:48:28.665Z,5.90
2023-02-17T18:50:55.573Z,4.37
2023-02-17T18:53:22.460Z,4.37
2023-02-17T18:55:49.855Z,6.07
2023-02-17T18:58:16.808Z,6.70
2023-02-17T19:00:43.630Z,5.47
2023-02-17T19:03:10.476Z,5.50
2023-02-17T19:05:37.286Z,5.83
2023-02-17T19:08:04.375Z,5.03
2023-02-17T19:10:31.212Z,5.50
2023-02-17T19:12:58.042Z,6.23
2023-02-17T19:15:25.195Z,5.30
2023-02-17T19:17:58.668Z,4.30
2023-02-17T19:20:28.953Z,5.03
2023-02-17T19:22:55.810Z,6.40
2023-02-17T19:25:22.648Z,5.10
2023-02-17T19:27:49.785Z,6.27
2023-02-17T19:30:16.708Z,5.87
2023-02-17T19:32:43.541Z,5.67
2023-02-17T19:35:11.709Z,5.03
2023-02-17T19:37:38.747Z,4.47
2023-02-17T19:40:06.329Z,5.63
2023-02-17T19:42:33.179Z,5.00
2023-02-17T19:45:00.031Z,5.03
2023-02-17T19:47:26.912Z,6.27
2023-02-17T19:49:53.793Z,5.30
2023-02-17T19:52:21.099Z,5.17
2023-02-17T19:54:49.836Z,3.87
2023-02-17T19:57:18.314Z,7.50
2023-02-17T19:59:45.737Z,4.27
2023-02-17T20:02:14.508Z,5.53
2023-02-17T20:04:41.755Z,5.37
2023-02-17T20:07:08.604Z,3.63
2023-02-17T20:09:35.655Z,7.17
2023-02-17T20:12:02.633Z,5.00
2023-02-17T20:14:29.641Z,5.77
2023-02-17T20:16:58.662Z,5.77
2023-02-17T20:19:25.486Z,5.07
2023-02-17T20:21:52.352Z,5.63
2023-02-17T20:24:19.684Z,5.37
2023-02-17T20:26:48.206Z,4.20
2023-02-17T20:29:15.526Z,4.43
2023-02-17T20:31:42.845Z,6.43
2023-02-17T20:34:21.433Z,5.03
2023-02-17T20:36:48.244Z,6.20
2023-02-17T20:39:15.130Z,6.17
2023-02-17T20:41:41.988Z,5.90
2023-02-17T20:44:11.115Z,3.80
2023-02-17T20:46:39.464Z,7.03
2023-02-17T20:49:06.437Z,6.90
2023-02-17T20:51:33.349Z,4.90
2023-02-17T20:54:00.199Z,6.47
2023-02-17T20:56:34.357Z,5.63
2023-02-17T20:59:02.752Z,4.67
2023-02-17T21:01:29.812Z,5.40
2023-02-17T21:03:56.901Z,5.77
2023-02-17T21:06:30.052Z,6.17
2023-02-17T21:08:59.712Z,5.47
2023-02-17T21:11:27.704Z,4.37
2023-02-17T21:13:55.327Z,5.20
2023-02-17T21:16:32.199Z,5.50
2023-02-17T21:19:00.566Z,6.00
2023-02-17T21:21:28.176Z,4.70
2023-02-17T21:23:56.164Z,4.50
2023-02-17T21:26:23.160Z,6.43
2023-02-17T21:28:50.357Z,5.03
2023-02-17T21:31:18.132Z,7.50
2023-02-17T21:33:45.060Z,4.63
2023-02-17T21:36:14.741Z,6.60
2023-02-17T21:38:41.895Z,5.23
2023-02-17T21:41:11.687Z,6.03
2023-02-17T21:43:58.414Z,4.83
2023-02-17T21:46:26.476Z,6.10
2023-02-17T21:48:54.933Z,4.03
2023-02-17T21:51:21.952Z,5.23
2023-02-17T21:53:48.958Z,4.30
2023-02-17T21:56:16.473Z,4.63
2023-02-17T21:58:47.896Z,5.90
2023-02-17T22:01:15.137Z,4.13
2023-02-17T22:03:42.285Z,3.50
2023-02-17T22:06:21.235Z,5.60
2023-02-17T22:08:48.165Z,4.67
2023-02-17T22:11:17.824Z,4.10
2023-02-17T22:13:46.488Z,3.90
2023-02-17T22:16:13.585Z,2.87
2023-02-17T22:18:40.566Z,3.63
2023-02-17T22:21:10.452Z,4.23
2023-02-17T22:23:38.125Z,3.73
2023-02-17T22:26:07.525Z,2.77
2023-02-17T22:28:34.540Z,3.67
2023-02-17T22:31:01.470Z,2.30
2023-02-17T22:33:28.670Z,2.77
2023-02-17T22:36:00.808Z,3.37
2023-02-17T22:38:28.559Z,2.27
2023-02-17T22:40:55.599Z,2.60
2023-02-17T22:43:22.853Z,2.90
2023-02-17T22:45:56.895Z,2.53
2023-02-17T22:48:23.744Z,2.43
2023-02-17T22:50:50.703Z,2.97
2023-02-17T22:53:17.756Z,2.63
2023-02-17T22:55:55.024Z,1.73
2023-02-17T22:58:23.692Z,2.43
2023-02-17T23:00:51.005Z,0.77
2023-02-17T23:03:18.925Z,1.33
2023-02-17T23:05:46.896Z,0.53
2023-02-17T23:08:13.780Z,0.80
2023-02-17T23:10:42.041Z,0.90
2023-02-17T23:13:09.238Z,1.03
2023-02-17T23:15:40.784Z,0.80
2023-02-17T23:18:13.597Z,1.43
2023-02-17T23:20:42.720Z,1.43
2023-02-17T23:23:09.972Z,1.00
2023-02-17T23:25:39.477Z,1.70
2023-02-17T23:28:06.626Z,1.20
2023-02-17T23:30:33.989Z,2.20
2023-02-17T23:33:00.921Z,1.40
2023-02-17T23:35:27.713Z,1.80
2023-02-17T23:37:54.717Z,0.73
2023-02-17T23:40:21.598Z,1.33
2023-02-17T23:42:48.671Z,0.60
2023-02-17T23:45:15.586Z,1.07
2023-02-17T23:47:42.504Z,0.97
2023-02-17T23:50:10.080Z,1.00
2023-02-17T23:52:37.005Z,1.00
2023-02-17T23:55:06.096Z,1.33
2023-02-17T23:57:39.167Z,1.33
